Kuala Terengganu, Malaysia
Current Conditions -  °F | °C
As of 6:00 AM on Friday 24 Oct 2014 (Local Time) from WMKN Reporting Station
Broken Clouds Broken Clouds  
Wind Chill: 77°   Ceiling: 22000
Heat Index: 78°   Visibility: 6mi
Dew Point: 75°   Wind: 3mph
Humidity: 94%   Direction: 210°SSW
Pressure: 29.8"   Gusts: NA
Location:  5.33°N, 103.14°E
Report Text: WMKN 232200Z 21003KT 9999 SCT024 BKN220 25/24 Q1009
Loading
Personal Weather Stations






























Interactive Weather Map
Tropical Storm Tracking
New forecast layout! Learn more

10-Day Weather Forecast

Advertisements
Track Severe Weather on mobile